Terminal Aerodrome Forecast
Issued by NWS

Home | Current Version | Previous Version | Text Only | Print | Product List | Glossary On
Versions: 1 2 3 4 5 6 7 8 9 10 11 12 13 14
000
FTUS41 KBTV 211700
TAFMPV
TAF
KMPV 211725Z 2118/2218 17004KT P6SM -SHRA SCT015 OVC050
      TEMPO 2118/2121 2SM SHRA BR BKN015 OVC035
     FM212100 VRB03KT P6SM VCSH BKN045
     FM220800 00000KT 3SM BR OVC020
     FM221300 16004KT P6SM VCSH BKN040=

USA.gov is the U.S. government's official web portal to all federal, state and local government web resources and services.